createdAt,value
2022-12-22T00:00:32.998Z,1.60
2022-12-22T00:03:18.732Z,2.50
2022-12-22T00:06:05.726Z,1.47
2022-12-22T00:08:51.269Z,2.37
2022-12-22T00:11:36.418Z,2.13
2022-12-22T00:14:21.606Z,1.80
2022-12-22T00:17:07.241Z,1.83
2022-12-22T00:19:52.396Z,2.83
2022-12-22T00:22:41.011Z,1.80
2022-12-22T00:25:28.271Z,3.47
2022-12-22T00:28:13.470Z,2.13
2022-12-22T00:30:58.742Z,3.00
2022-12-22T00:33:43.947Z,4.47
2022-12-22T00:36:31.014Z,4.63
2022-12-22T00:39:17.697Z,2.63
2022-12-22T00:42:03.088Z,3.27
2022-12-22T00:44:48.619Z,3.33
2022-12-22T00:47:42.379Z,3.73
2022-12-22T00:50:28.029Z,2.40
2022-12-22T00:53:13.587Z,3.43
2022-12-22T00:56:00.116Z,2.80
2022-12-22T00:58:45.240Z,3.40
2022-12-22T01:01:30.956Z,2.10
2022-12-22T01:04:16.462Z,3.03
2022-12-22T01:07:01.781Z,2.37
2022-12-22T01:09:47.261Z,2.73
2022-12-22T01:12:38.172Z,2.97
2022-12-22T01:15:29.038Z,1.77
2022-12-22T01:18:14.169Z,2.73
2022-12-22T01:20:59.674Z,1.87
2022-12-22T01:23:45.073Z,1.93
2022-12-22T01:26:30.696Z,1.63
2022-12-22T01:29:17.238Z,3.57
2022-12-22T01:32:02.450Z,2.23
2022-12-22T01:34:47.612Z,1.47
2022-12-22T01:37:32.875Z,1.90
2022-12-22T01:40:18.157Z,1.37
2022-12-22T01:43:03.679Z,1.73
2022-12-22T01:45:52.473Z,1.80
2022-12-22T01:48:39.047Z,3.63
2022-12-22T01:51:27.851Z,2.43
2022-12-22T01:54:13.867Z,2.10
2022-12-22T01:56:59.449Z,2.73
2022-12-22T01:59:44.691Z,2.53
2022-12-22T02:02:31.675Z,2.07
2022-12-22T02:05:18.522Z,1.87
2022-12-22T02:08:12.587Z,1.80
2022-12-22T02:11:10.602Z,3.43
2022-12-22T02:14:01.618Z,1.10
2022-12-22T02:16:51.884Z,1.43
2022-12-22T02:19:50.969Z,0.93
2022-12-22T02:22:41.335Z,1.40
2022-12-22T02:25:29.922Z,2.03
2022-12-22T02:28:17.610Z,1.07
2022-12-22T02:31:03.523Z,0.83
2022-12-22T02:33:48.887Z,0.80
2022-12-22T02:36:42.260Z,0.97
2022-12-22T02:39:34.033Z,0.40
2022-12-22T02:42:27.417Z,0.40
2022-12-22T02:45:21.638Z,0.70
2022-12-22T02:48:09.830Z,0.50
2022-12-22T02:50:58.224Z,0.40
2022-12-22T02:53:44.432Z,0.60
2022-12-22T02:56:30.082Z,0.50
2022-12-22T02:59:15.520Z,0.40
2022-12-22T03:02:04.369Z,0.40
2022-12-22T03:04:49.667Z,0.30
2022-12-22T03:07:35.281Z,0.40
2022-12-22T03:10:20.281Z,0.30
2022-12-22T03:13:05.482Z,0.37
2022-12-22T03:15:51.168Z,0.30
2022-12-22T03:18:38.128Z,0.20
2022-12-22T03:21:23.780Z,0.23
2022-12-22T03:24:09.318Z,0.30
2022-12-22T03:26:37.042Z,0.40
2022-12-22T03:29:04.770Z,0.20
2022-12-22T03:31:32.694Z,0.37
2022-12-22T03:34:01.907Z,0.47
2022-12-22T03:36:29.737Z,1.17
2022-12-22T03:38:57.459Z,0.30
2022-12-22T03:41:42.863Z,0.40
2022-12-22T03:44:28.049Z,0.20
2022-12-22T03:46:55.927Z,0.83
2022-12-22T03:49:26.199Z,0.63
2022-12-22T03:51:54.420Z,0.47
2022-12-22T03:54:23.650Z,1.70
2022-12-22T03:56:51.959Z,0.30
2022-12-22T03:59:20.358Z,0.83
2022-12-22T04:01:50.309Z,0.40
2022-12-22T04:04:20.041Z,0.37
2022-12-22T04:06:49.823Z,0.37
2022-12-22T04:09:17.644Z,0.23
2022-12-22T04:12:02.882Z,0.67
2022-12-22T04:14:34.253Z,3.90
2022-12-22T04:17:02.900Z,1.03
2022-12-22T04:19:31.765Z,3.30
2022-12-22T04:22:01.143Z,0.30
2022-12-22T04:24:29.347Z,0.40
2022-12-22T04:26:57.243Z,0.30
2022-12-22T04:29:25.015Z,0.40
2022-12-22T04:31:52.831Z,2.67
2022-12-22T04:34:20.671Z,0.40
2022-12-22T04:36:48.467Z,0.88
2022-12-22T04:39:17.578Z,1.67
2022-12-22T04:41:45.340Z,0.47
2022-12-22T04:44:13.080Z,0.30
2022-12-22T04:46:40.802Z,0.47
2022-12-22T04:49:08.718Z,0.30
2022-12-22T04:51:36.440Z,0.40
2022-12-22T04:54:04.520Z,1.17
2022-12-22T04:56:33.614Z,0.47
2022-12-22T04:59:01.332Z,1.70
2022-12-22T05:01:29.360Z,0.70
2022-12-22T05:03:57.226Z,0.28
2022-12-22T05:06:24.999Z,0.30
2022-12-22T05:08:52.761Z,1.48
2022-12-22T05:11:20.579Z,1.38
2022-12-22T05:13:49.724Z,1.30
2022-12-22T05:16:17.906Z,0.35
2022-12-22T05:18:46.447Z,0.85
2022-12-22T05:21:15.949Z,0.30
2022-12-22T05:23:45.149Z,0.47
2022-12-22T05:26:14.654Z,0.37
2022-12-22T05:28:42.857Z,5.38
2022-12-22T05:31:16.622Z,2.33
2022-12-22T05:33:44.545Z,0.30
2022-12-22T05:36:12.325Z,0.30
2022-12-22T05:38:40.321Z,2.85
2022-12-22T05:41:08.621Z,0.90
2022-12-22T05:43:36.749Z,0.28
2022-12-22T05:46:04.928Z,0.95
2022-12-22T05:48:38.607Z,0.47
2022-12-22T05:51:07.844Z,1.33
2022-12-22T05:53:35.683Z,0.63
2022-12-22T05:56:03.649Z,0.93
2022-12-22T05:58:31.542Z,0.60
2022-12-22T06:00:59.937Z,2.17
2022-12-22T06:03:28.536Z,0.87
2022-12-22T06:05:58.633Z,1.27
2022-12-22T06:08:27.263Z,3.15
2022-12-22T06:10:55.854Z,0.57
2022-12-22T06:13:23.878Z,2.05
2022-12-22T06:15:51.730Z,0.77
2022-12-22T06:18:19.633Z,2.47
2022-12-22T06:20:47.776Z,0.70
2022-12-22T06:23:16.888Z,1.00
2022-12-22T06:25:44.673Z,0.88
2022-12-22T06:28:12.546Z,4.30
2022-12-22T06:30:40.487Z,0.55
2022-12-22T06:33:08.413Z,3.78
2022-12-22T06:35:37.781Z,6.72
2022-12-22T06:38:05.635Z,1.02
2022-12-22T06:40:34.805Z,1.63
2022-12-22T06:43:10.993Z,1.73
2022-12-22T06:45:40.428Z,2.72
2022-12-22T06:48:09.161Z,4.67
2022-12-22T06:50:37.035Z,4.03
2022-12-22T06:53:05.189Z,2.60
2022-12-22T06:55:34.349Z,8.50
2022-12-22T06:58:02.205Z,1.37
2022-12-22T07:00:30.184Z,1.10
2022-12-22T07:02:58.241Z,2.65
2022-12-22T07:05:26.540Z,1.00
2022-12-22T07:07:54.651Z,3.45
2022-12-22T07:10:42.631Z,3.95
2022-12-22T07:13:20.442Z,1.00
2022-12-22T07:15:53.871Z,2.03
2022-12-22T07:18:25.172Z,2.85
2022-12-22T07:20:52.913Z,2.17
2022-12-22T07:23:20.987Z,2.17
2022-12-22T07:25:48.805Z,1.42
2022-12-22T07:28:21.015Z,2.95
2022-12-22T07:30:49.387Z,3.30
2022-12-22T07:33:17.480Z,3.75
2022-12-22T07:35:45.521Z,2.05
2022-12-22T07:38:13.589Z,1.75
2022-12-22T07:40:44.279Z,1.90
2022-12-22T07:43:12.645Z,2.90
2022-12-22T07:45:41.819Z,2.30
2022-12-22T07:48:24.460Z,2.97
2022-12-22T07:50:52.256Z,3.40
2022-12-22T07:53:20.117Z,5.03
2022-12-22T07:55:47.860Z,5.13
2022-12-22T07:58:15.613Z,4.77
2022-12-22T08:00:44.839Z,6.07
2022-12-22T08:03:12.996Z,5.93
2022-12-22T08:05:41.043Z,4.30
2022-12-22T08:08:08.806Z,6.32
2022-12-22T08:10:36.683Z,6.20
2022-12-22T08:13:04.635Z,11.83
2022-12-22T08:15:32.636Z,7.13
2022-12-22T08:18:01.804Z,8.50
2022-12-22T08:20:29.630Z,8.18
2022-12-22T08:22:57.968Z,8.18
2022-12-22T08:25:25.851Z,9.18
2022-12-22T08:27:54.829Z,10.73
2022-12-22T08:30:22.720Z,14.43
2022-12-22T08:32:51.994Z,12.03
2022-12-22T08:35:21.458Z,13.17
2022-12-22T08:37:49.764Z,14.13
2022-12-22T08:40:21.337Z,13.70
2022-12-22T08:42:49.794Z,14.13
2022-12-22T08:45:17.777Z,14.97
2022-12-22T08:47:45.644Z,13.50
2022-12-22T08:50:13.959Z,15.97
2022-12-22T08:52:43.229Z,13.57
2022-12-22T08:55:11.477Z,13.90
2022-12-22T08:57:39.305Z,12.60
2022-12-22T09:00:08.640Z,12.17
2022-12-22T09:02:36.893Z,13.30
2022-12-22T09:05:05.303Z,13.03
2022-12-22T09:07:33.123Z,13.57
2022-12-22T09:10:02.436Z,15.13
2022-12-22T09:12:30.439Z,13.57
2022-12-22T09:14:58.536Z,15.53
2022-12-22T09:17:26.350Z,12.25
2022-12-22T09:19:54.194Z,13.27
2022-12-22T09:22:28.195Z,14.23
2022-12-22T09:24:56.854Z,12.87
2022-12-22T09:27:25.958Z,10.70
2022-12-22T09:29:53.824Z,12.18
2022-12-22T09:32:21.776Z,13.27
2022-12-22T09:34:49.907Z,12.32
2022-12-22T09:37:17.707Z,14.97
2022-12-22T09:39:45.800Z,13.35
2022-12-22T09:42:15.979Z,12.40
2022-12-22T09:44:47.129Z,11.75
2022-12-22T09:47:20.234Z,11.63
2022-12-22T09:49:48.127Z,12.15
2022-12-22T09:52:25.246Z,11.27
2022-12-22T09:54:53.087Z,12.20
2022-12-22T09:57:20.999Z,12.75
2022-12-22T09:59:50.333Z,16.10
2022-12-22T10:02:25.835Z,11.93
2022-12-22T10:05:12.046Z,12.48
2022-12-22T10:07:42.629Z,10.20
2022-12-22T10:10:24.822Z,13.48
2022-12-22T10:12:53.054Z,15.23
2022-12-22T10:15:22.389Z,16.33
2022-12-22T10:17:51.848Z,15.88
2022-12-22T10:20:26.442Z,15.27
2022-12-22T10:22:56.037Z,14.13
2022-12-22T10:25:52.560Z,11.85
2022-12-22T10:28:22.889Z,12.95
2022-12-22T10:31:11.600Z,12.73
2022-12-22T10:33:44.312Z,11.20
2022-12-22T10:36:14.596Z,12.32
2022-12-22T10:38:56.134Z,13.98
2022-12-22T10:41:26.641Z,14.18
2022-12-22T10:43:55.893Z,16.05
2022-12-22T10:46:34.357Z,14.65
2022-12-22T10:49:14.689Z,13.68
2022-12-22T10:51:44.154Z,12.65
2022-12-22T10:54:28.807Z,14.05
2022-12-22T10:57:08.555Z,14.20
2022-12-22T10:59:49.055Z,16.85
2022-12-22T11:02:41.918Z,18.98
2022-12-22T11:05:11.632Z,16.38
2022-12-22T11:07:40.826Z,15.18
2022-12-22T11:10:18.246Z,15.80
2022-12-22T11:12:57.174Z,18.73
2022-12-22T11:15:29.717Z,18.33
2022-12-22T11:18:03.880Z,16.23
2022-12-22T11:20:47.831Z,16.97
2022-12-22T11:23:21.027Z,16.87
2022-12-22T11:25:56.707Z,14.27
2022-12-22T11:28:40.947Z,14.93
2022-12-22T11:31:16.982Z,17.83
2022-12-22T11:33:59.531Z,17.50
2022-12-22T11:36:34.388Z,14.52
2022-12-22T11:39:06.182Z,16.00
2022-12-22T11:41:56.671Z,17.20
2022-12-22T11:44:36.089Z,16.42
2022-12-22T11:47:08.521Z,16.30
2022-12-22T11:49:46.787Z,15.55
2022-12-22T11:52:28.208Z,16.02
2022-12-22T11:55:08.458Z,17.83
2022-12-22T11:57:41.053Z,17.98
2022-12-22T12:00:11.833Z,16.48
2022-12-22T12:03:27.800Z,12.93
2022-12-22T12:06:25.707Z,14.45
2022-12-22T12:09:02.958Z,17.10
2022-12-22T12:11:36.145Z,18.80
2022-12-22T12:14:11.848Z,17.13
2022-12-22T12:16:41.582Z,17.38
2022-12-22T12:19:47.515Z,16.80
2022-12-22T12:22:24.354Z,17.08
2022-12-22T12:25:01.014Z,16.42
2022-12-22T12:27:45.032Z,17.33
2022-12-22T12:33:09.654Z,17.10
2022-12-22T12:35:47.374Z,16.02
2022-12-22T12:38:56.785Z,13.13
2022-12-22T12:41:15.817Z,15.80
2022-12-22T12:43:44.259Z,14.52
2022-12-22T12:46:47.208Z,13.23
2022-12-22T12:49:52.796Z,13.82
2022-12-22T12:52:59.310Z,15.73
2022-12-22T12:55:33.732Z,12.48
2022-12-22T12:58:03.254Z,14.27
2022-12-22T13:00:49.825Z,13.25
2022-12-22T13:06:55.487Z,12.93
2022-12-22T13:09:50.352Z,13.48
2022-12-22T13:12:38.715Z,10.68
2022-12-22T13:15:29.006Z,11.38
2022-12-22T13:17:57.240Z,13.15
2022-12-22T13:20:27.461Z,10.35
2022-12-22T13:22:57.138Z,9.45
2022-12-22T13:25:28.767Z,10.65
2022-12-22T13:27:58.702Z,12.52
2022-12-22T13:30:29.773Z,13.32
2022-12-22T13:32:58.176Z,10.55
2022-12-22T13:35:33.919Z,12.25
2022-12-22T13:38:02.879Z,12.75
2022-12-22T13:40:31.984Z,12.20
2022-12-22T13:43:04.537Z,11.55
2022-12-22T13:45:35.868Z,11.70
2022-12-22T13:48:09.649Z,15.13
2022-12-22T13:50:39.677Z,13.32
2022-12-22T13:53:09.879Z,14.18
2022-12-22T13:55:38.798Z,14.55
2022-12-22T13:58:14.433Z,11.85
2022-12-22T14:00:42.349Z,9.82
2022-12-22T14:03:41.597Z,10.35
2022-12-22T14:06:19.999Z,10.80
2022-12-22T14:08:47.725Z,11.73
2022-12-22T14:11:15.469Z,9.50
2022-12-22T14:13:44.779Z,10.90
2022-12-22T14:16:14.973Z,9.68
2022-12-22T14:18:43.411Z,9.82
2022-12-22T14:21:11.843Z,10.35
2022-12-22T14:23:41.665Z,9.32
2022-12-22T14:26:14.087Z,9.25
2022-12-22T14:28:50.290Z,8.45
2022-12-22T14:31:19.182Z,12.00
2022-12-22T14:33:53.173Z,8.38
2022-12-22T14:36:23.679Z,9.13
2022-12-22T14:38:52.833Z,9.52
2022-12-22T14:41:44.081Z,8.82
2022-12-22T14:44:15.919Z,9.60
2022-12-22T14:46:44.465Z,9.10
2022-12-22T14:49:15.136Z,13.55
2022-12-22T14:51:43.448Z,10.02
2022-12-22T14:54:21.005Z,10.55
2022-12-22T14:56:49.703Z,13.63
2022-12-22T14:59:26.154Z,11.05
2022-12-22T15:02:01.691Z,11.02
2022-12-22T15:04:30.375Z,11.00
2022-12-22T15:07:45.815Z,10.98
2022-12-22T15:10:15.338Z,10.38
2022-12-22T15:12:44.059Z,9.17
2022-12-22T15:15:18.138Z,10.73
2022-12-22T15:17:47.611Z,10.07
2022-12-22T15:20:19.156Z,11.95
2022-12-22T15:22:47.005Z,11.63
2022-12-22T15:25:16.349Z,11.70
2022-12-22T15:27:44.264Z,9.43
2022-12-22T15:30:14.241Z,10.75
2022-12-22T15:32:43.846Z,10.98
2022-12-22T15:35:23.398Z,11.40
2022-12-22T15:37:51.180Z,10.60
2022-12-22T15:40:20.829Z,10.90
2022-12-22T15:42:48.826Z,10.13
2022-12-22T15:45:16.997Z,12.23
2022-12-22T15:47:49.682Z,11.57
2022-12-22T15:50:20.202Z,10.17
2022-12-22T15:52:50.235Z,12.90
2022-12-22T15:55:18.578Z,11.87
2022-12-22T15:57:46.435Z,11.57
2022-12-22T16:00:15.248Z,12.93
2022-12-22T16:02:43.252Z,13.63
2022-12-22T16:05:12.948Z,11.90
2022-12-22T16:07:42.015Z,10.03
2022-12-22T16:10:19.819Z,13.80
2022-12-22T16:12:53.874Z,12.77
2022-12-22T16:15:22.271Z,11.70
2022-12-22T16:17:52.043Z,12.67
2022-12-22T16:20:21.329Z,9.70
2022-12-22T16:22:50.366Z,12.20
2022-12-22T16:25:20.146Z,10.40
2022-12-22T16:27:49.508Z,9.13
2022-12-22T16:30:19.970Z,11.73
2022-12-22T16:32:48.082Z,9.57
2022-12-22T16:35:17.951Z,10.83
2022-12-22T16:37:48.715Z,13.13
2022-12-22T16:40:18.052Z,13.10
2022-12-22T16:45:37.355Z,12.87
2022-12-22T16:48:07.682Z,13.50
2022-12-22T16:50:35.461Z,11.33
2022-12-22T16:53:06.099Z,14.63
2022-12-22T16:55:35.859Z,12.73
2022-12-22T16:58:12.946Z,12.87
2022-12-22T17:00:43.774Z,13.30
2022-12-22T17:03:14.451Z,12.10
2022-12-22T17:05:45.281Z,13.23
2022-12-22T17:08:20.029Z,13.60
2022-12-22T17:10:47.876Z,13.70
2022-12-22T17:13:15.765Z,12.97
2022-12-22T17:15:43.951Z,10.93
2022-12-22T17:18:17.074Z,13.40
2022-12-22T17:20:45.343Z,10.50
2022-12-22T17:23:28.163Z,14.10
2022-12-22T17:25:55.932Z,17.20
2022-12-22T17:28:23.718Z,12.40
2022-12-22T17:30:51.543Z,13.60
2022-12-22T17:33:19.681Z,13.90
2022-12-22T17:35:48.307Z,13.93
2022-12-22T17:38:18.630Z,15.63
2022-12-22T17:40:48.433Z,11.90
2022-12-22T17:43:17.352Z,15.80
2022-12-22T17:45:46.672Z,12.23
2022-12-22T17:48:15.113Z,10.63
2022-12-22T17:50:43.995Z,11.60
2022-12-22T17:53:20.687Z,10.33
2022-12-22T17:58:36.890Z,9.53
2022-12-22T18:01:04.653Z,9.60
2022-12-22T18:03:33.863Z,9.70
2022-12-22T18:06:01.757Z,7.83
2022-12-22T18:08:30.907Z,9.60
2022-12-22T18:10:58.697Z,7.63
2022-12-22T18:13:26.719Z,8.37
2022-12-22T18:15:55.677Z,9.03
2022-12-22T18:18:23.523Z,14.57
2022-12-22T18:21:06.058Z,8.73
2022-12-22T18:23:38.187Z,8.60
2022-12-22T18:26:08.289Z,5.73
2022-12-22T18:28:36.279Z,7.97
2022-12-22T18:31:04.134Z,7.70
2022-12-22T18:33:31.951Z,6.20
2022-12-22T18:36:00.277Z,7.20
2022-12-22T18:38:31.999Z,7.63
2022-12-22T18:41:01.395Z,5.63
2022-12-22T18:43:29.090Z,5.23
2022-12-22T18:45:56.838Z,6.07
2022-12-22T18:48:24.877Z,5.07
2022-12-22T18:50:52.725Z,5.47
2022-12-22T18:53:27.854Z,4.73
2022-12-22T18:55:56.309Z,4.93
2022-12-22T18:58:26.003Z,6.80
2022-12-22T19:00:55.150Z,4.13
2022-12-22T19:03:24.853Z,5.50
2022-12-22T19:05:52.957Z,5.00
2022-12-22T19:08:22.519Z,5.17
2022-12-22T19:10:52.663Z,5.13
2022-12-22T19:13:26.427Z,4.00
2022-12-22T19:15:54.456Z,5.20
2022-12-22T19:18:27.002Z,6.70
2022-12-22T19:20:55.537Z,8.17
2022-12-22T19:23:25.439Z,8.77
2022-12-22T19:25:56.046Z,6.97
2022-12-22T19:28:28.613Z,7.10
2022-12-22T19:30:57.124Z,7.57
2022-12-22T19:33:27.862Z,8.97
2022-12-22T19:35:55.647Z,4.43
2022-12-22T19:38:25.471Z,6.50
2022-12-22T19:40:55.591Z,9.80
2022-12-22T19:43:23.481Z,5.47
2022-12-22T19:45:54.013Z,10.90
2022-12-22T19:48:23.682Z,7.63
2022-12-22T19:50:52.748Z,7.13
2022-12-22T19:53:20.984Z,8.57
2022-12-22T19:55:52.728Z,10.93
2022-12-22T19:58:23.223Z,9.53
2022-12-22T20:00:52.533Z,9.17
2022-12-22T20:03:22.625Z,8.07
2022-12-22T20:05:50.756Z,6.97
2022-12-22T20:08:18.979Z,10.27
2022-12-22T20:10:50.557Z,7.70
2022-12-22T20:13:22.208Z,6.20
2022-12-22T20:15:50.397Z,6.83
2022-12-22T20:18:21.799Z,6.77
2022-12-22T20:20:57.629Z,9.80
2022-12-22T20:23:26.011Z,7.53
2022-12-22T20:25:56.174Z,7.47
2022-12-22T20:28:25.800Z,5.13
2022-12-22T20:30:54.741Z,5.47
2022-12-22T20:33:25.093Z,5.23
2022-12-22T20:35:54.256Z,6.47
2022-12-22T20:38:25.481Z,7.93
2022-12-22T20:40:54.281Z,6.97
2022-12-22T20:43:24.895Z,6.97
2022-12-22T20:45:54.411Z,5.15
2022-12-22T20:48:30.529Z,9.32
2022-12-22T20:50:58.640Z,21.70
2022-12-22T20:53:26.863Z,6.93
2022-12-22T20:55:54.693Z,4.83
2022-12-22T20:58:25.127Z,3.97
2022-12-22T21:00:54.135Z,7.75
2022-12-22T21:03:22.133Z,5.60
2022-12-22T21:05:51.766Z,4.10
2022-12-22T21:08:21.892Z,7.07
2022-12-22T21:10:51.209Z,6.50
2022-12-22T21:13:19.399Z,3.47
2022-12-22T21:15:50.230Z,4.53
2022-12-22T21:18:20.117Z,4.13
2022-12-22T21:20:48.412Z,3.37
2022-12-22T21:23:17.777Z,6.10
2022-12-22T21:25:47.029Z,3.53
2022-12-22T21:28:24.758Z,7.25
2022-12-22T21:30:52.690Z,2.63
2022-12-22T21:33:20.548Z,3.10
2022-12-22T21:35:48.607Z,5.93
2022-12-22T21:38:19.350Z,3.67
2022-12-22T21:40:47.727Z,3.85
2022-12-22T21:43:16.226Z,5.45
2022-12-22T21:45:44.902Z,5.00
2022-12-22T21:48:13.850Z,2.97
2022-12-22T21:50:41.720Z,5.53
2022-12-22T21:53:09.517Z,7.53
2022-12-22T21:55:39.509Z,8.93
2022-12-22T21:58:09.040Z,4.93
2022-12-22T22:00:37.125Z,7.60
2022-12-22T22:03:05.181Z,4.47
2022-12-22T22:05:34.916Z,6.53
2022-12-22T22:08:03.410Z,8.30
2022-12-22T22:10:33.295Z,8.18
2022-12-22T22:13:03.278Z,7.15
2022-12-22T22:15:32.171Z,7.43
2022-12-22T22:18:06.558Z,10.15
2022-12-22T22:20:35.026Z,11.63
2022-12-22T22:23:02.945Z,10.00
2022-12-22T22:25:30.843Z,5.55
2022-12-22T22:27:59.934Z,5.38
2022-12-22T22:30:29.127Z,7.03
2022-12-22T22:32:57.522Z,4.10
2022-12-22T22:35:26.829Z,5.78
2022-12-22T22:37:55.988Z,8.85
2022-12-22T22:40:24.622Z,7.53
2022-12-22T22:42:52.505Z,11.10
2022-12-22T22:45:23.679Z,10.13
2022-12-22T22:47:53.823Z,12.35
2022-12-22T22:50:22.777Z,8.45
2022-12-22T22:52:50.846Z,9.65
2022-12-22T22:55:18.648Z,6.93
2022-12-22T22:57:46.548Z,9.85
2022-12-22T23:00:17.309Z,8.83
2022-12-22T23:02:46.029Z,10.65
2022-12-22T23:05:20.687Z,7.78
2022-12-22T23:07:50.747Z,8.10
2022-12-22T23:10:18.733Z,9.87
2022-12-22T23:12:46.711Z,11.27
2022-12-22T23:15:14.587Z,10.80
2022-12-22T23:17:42.529Z,6.82
2022-12-22T23:20:10.727Z,11.18
2022-12-22T23:22:39.934Z,9.47
2022-12-22T23:25:09.219Z,9.30
2022-12-22T23:27:37.057Z,10.93
2022-12-22T23:30:05.422Z,10.27
2022-12-22T23:32:33.200Z,9.85
2022-12-22T23:35:01.024Z,6.63
2022-12-22T23:37:28.842Z,10.60
2022-12-22T23:40:10.809Z,11.63
2022-12-22T23:42:45.695Z,7.50
2022-12-22T23:45:13.547Z,6.18
2022-12-22T23:47:41.869Z,14.18
2022-12-22T23:50:10.146Z,7.07
2022-12-22T23:52:37.912Z,8.32
2022-12-22T23:55:08.159Z,8.70
2022-12-22T23:57:36.013Z,11.30
